createdAt,value
2023-03-22T00:05:02.800Z,17.85
2023-03-22T00:12:36.756Z,14.60
2023-03-22T00:20:13.616Z,14.95
2023-03-22T00:27:47.384Z,15.57
2023-03-22T00:35:22.651Z,15.80
2023-03-22T00:42:57.026Z,15.15
2023-03-22T00:50:32.327Z,12.77
2023-03-22T00:58:06.187Z,14.77
2023-03-22T01:05:41.432Z,15.82
2023-03-22T01:13:17.812Z,13.20
2023-03-22T01:20:53.668Z,14.68
2023-03-22T01:28:27.930Z,16.05
2023-03-22T01:36:03.374Z,17.87
2023-03-22T01:43:38.252Z,18.30
2023-03-22T01:58:50.298Z,15.75
2023-03-22T02:06:26.904Z,14.73
2023-03-22T02:14:14.459Z,19.52
2023-03-22T02:22:17.679Z,15.70
2023-03-22T02:30:02.016Z,18.73
2023-03-22T02:38:08.064Z,19.27
2023-03-22T02:53:43.150Z,15.67
2023-03-22T03:01:23.813Z,16.88
2023-03-22T03:09:02.657Z,16.13
2023-03-22T03:16:38.019Z,17.98
2023-03-22T03:24:23.062Z,17.15
2023-03-22T03:32:06.572Z,15.68
2023-03-22T03:39:47.828Z,15.82
2023-03-22T03:47:24.488Z,17.83
2023-03-22T03:54:58.572Z,18.05
2023-03-22T04:02:34.157Z,15.17
2023-03-22T04:10:09.371Z,14.75
2023-03-22T04:17:44.737Z,17.58
2023-03-22T04:25:19.043Z,18.40
2023-03-22T04:32:54.348Z,15.93
2023-03-22T04:40:31.685Z,18.08
2023-03-22T04:48:07.891Z,17.92
2023-03-22T04:55:41.928Z,17.70
2023-03-22T05:03:19.433Z,17.43
2023-03-22T05:10:53.763Z,16.42
2023-03-22T05:18:29.535Z,20.27
2023-03-22T05:26:04.436Z,18.02
2023-03-22T05:33:39.915Z,17.48
2023-03-22T05:41:14.875Z,20.80
2023-03-22T05:48:50.274Z,17.02
2023-03-22T05:56:25.995Z,22.50
2023-03-22T06:04:01.584Z,20.25
2023-03-22T06:11:35.660Z,18.50
2023-03-22T06:19:11.253Z,18.57
2023-03-22T06:26:45.288Z,15.52
2023-03-22T06:34:20.556Z,21.60
2023-03-22T06:41:55.182Z,21.95
2023-03-22T06:49:31.666Z,18.92
2023-03-22T06:57:05.591Z,19.98
2023-03-22T07:04:41.310Z,21.80
2023-03-22T07:12:15.611Z,22.38
2023-03-22T07:19:53.424Z,21.58
2023-03-22T07:27:27.407Z,20.38
2023-03-22T07:35:02.856Z,21.70
2023-03-22T07:42:37.141Z,25.52
2023-03-22T07:50:13.958Z,22.70
2023-03-22T07:57:47.959Z,23.02
2023-03-22T08:05:23.678Z,27.17
2023-03-22T08:12:57.844Z,21.30
2023-03-22T08:20:34.289Z,21.07
2023-03-22T08:28:08.243Z,21.17
2023-03-22T08:35:46.665Z,21.83
2023-03-22T08:43:20.593Z,19.35
2023-03-22T08:50:56.287Z,15.50
2023-03-22T08:58:30.358Z,16.17
2023-03-22T09:06:06.888Z,15.77
2023-03-22T09:13:41.630Z,15.10
2023-03-22T09:21:17.238Z,18.85
2023-03-22T09:28:52.155Z,17.05
2023-03-22T09:44:06.575Z,11.40
2023-03-22T09:51:44.554Z,10.82
2023-03-22T09:59:27.301Z,10.20
2023-03-22T10:07:11.853Z,11.68
2023-03-22T10:14:52.184Z,10.00
2023-03-22T10:22:30.962Z,10.48
2023-03-22T10:30:09.925Z,9.65
2023-03-22T10:37:49.171Z,9.95
2023-03-22T10:45:25.359Z,9.00
2023-03-22T10:53:06.069Z,8.07
2023-03-22T11:00:44.579Z,7.97
2023-03-22T11:08:19.959Z,10.50
2023-03-22T11:15:59.789Z,10.15
2023-03-22T11:23:38.566Z,6.63
2023-03-22T11:31:15.154Z,6.35
2023-03-22T11:38:59.166Z,6.53
2023-03-22T11:46:34.707Z,6.30
2023-03-22T11:54:16.048Z,6.50
2023-03-22T12:01:53.751Z,6.03
2023-03-22T12:09:39.349Z,6.10
2023-03-22T12:17:17.889Z,7.00
2023-03-22T12:24:53.341Z,6.55
2023-03-22T12:32:29.907Z,7.70
2023-03-22T12:40:10.190Z,8.90
2023-03-22T12:47:48.034Z,5.90
2023-03-22T12:55:27.327Z,5.32
2023-03-22T13:03:09.290Z,3.20
2023-03-22T13:11:03.922Z,5.40
2023-03-22T13:18:59.540Z,2.78
2023-03-22T13:26:40.862Z,5.18
2023-03-22T13:34:18.504Z,4.18
2023-03-22T13:42:07.877Z,4.68
2023-03-22T13:49:50.621Z,3.95
2023-03-22T13:57:48.051Z,3.58
2023-03-22T14:05:24.549Z,3.92
2023-03-22T14:13:05.052Z,3.38
2023-03-22T14:20:40.881Z,2.80
